70°F Temp
48°F Dewpoint
46% Humidity
Temperature
6 MPH
10 KM/H
5 KTS
320°
North West

Wind Speed
Partly Cloudy
Conditions
Pressure 1017.92 (hPa) - 30.06 (in)
Visibility 10.0 (mi) - 16.1 (km)

Current Conditions
KSJC
Location 9(mi)
Metar :KSJC 121953Z 32005KT 10SM FEW012 BKN110 OVC160 21/09 A3006 RMK AO2 SLP179 T02110094
Tue 12th November 11:53 am

Airport
  Metar Aviation API Data Provided by https://www.checkwx.com/ PHP scripts by weather34.com ©2019